Time;durP1;ratioP1;P1;durP2;ratioP2;P2;SDS_P1;SDS_P2;PMS_P1;PMS_P2;Temp;Humidity;BMP_temperature;BMP_pressure;BME280_temperature;BME280_humidity;BME280_pressure;Samples;Min_cycle;Max_cycle;Signal;HPM_P1;HPM_P2
2023/12/05 00:00:53;;;;;;;26.30;14.57;;;;;;;1.54;100.00;99798.88;5031789;28;20487;-70
2023/12/05 00:03:19;;;;;;;26.25;14.07;;;;;;;1.50;100.00;99793.13;5031696;28;20037;-70
2023/12/05 00:05:44;;;;;;;25.42;15.02;;;;;;;1.57;100.00;99797.72;5031525;28;20061;-70
2023/12/05 00:08:09;;;;;;;26.38;13.30;;;;;;;1.57;100.00;99793.28;5031695;28;20080;-70
2023/12/05 00:10:35;;;;;;;25.95;15.00;;;;;;;1.59;100.00;99793.13;5031177;28;20072;-70
2023/12/05 00:13:00;;;;;;;28.13;14.00;;;;;;;1.58;100.00;99787.06;5030213;28;20049;-70
2023/12/05 00:15:26;;;;;;;29.45;16.23;;;;;;;1.58;100.00;99789.69;5031509;28;20030;-70
2023/12/05 00:17:52;;;;;;;27.13;15.07;;;;;;;1.60;100.00;99789.50;5031484;28;20033;-70
2023/12/05 00:20:17;;;;;;;26.02;15.05;;;;;;;1.60;100.00;99784.25;5031274;28;20029;-70
2023/12/05 00:22:43;;;;;;;28.48;18.00;;;;;;;1.60;100.00;99789.50;5031316;28;20091;-70
2023/12/05 00:25:08;;;;;;;27.40;16.60;;;;;;;1.58;100.00;99784.44;5030964;28;20025;-70
2023/12/05 00:27:34;;;;;;;27.70;15.48;;;;;;;1.61;100.00;99789.34;5031374;28;20037;-70
2023/12/05 00:29:59;;;;;;;24.33;13.93;;;;;;;1.59;100.00;99775.53;5031247;28;20025;-70
2023/12/05 00:32:24;;;;;;;29.27;15.68;;;;;;;1.58;100.00;99771.28;5031303;28;20076;-70
2023/12/05 00:34:50;;;;;;;28.88;15.05;;;;;;;1.65;100.00;99781.94;5031084;28;20366;-70
2023/12/05 00:37:15;;;;;;;28.17;16.83;;;;;;;1.64;100.00;99778.50;5031152;28;20029;-70
2023/12/05 00:39:41;;;;;;;29.30;17.75;;;;;;;1.66;100.00;99778.34;5031050;28;20049;-70
2023/12/05 00:42:07;;;;;;;29.63;15.60;;;;;;;1.67;100.00;99778.16;5030587;28;20140;-70
2023/12/05 00:44:33;;;;;;;27.52;15.32;;;;;;;1.68;100.00;99768.50;5030896;28;20033;-70
2023/12/05 00:47:03;;;;;;;28.42;15.07;;;;;;;1.67;100.00;99772.91;5030814;28;20038;-70
2023/12/05 00:49:28;;;;;;;30.13;17.52;;;;;;;1.71;100.00;99766.34;5030716;28;20029;-70
2023/12/05 00:51:53;;;;;;;30.63;17.13;;;;;;;1.71;100.00;99771.59;5028474;28;20777;-70
2023/12/05 00:54:19;;;;;;;32.38;15.98;;;;;;;1.74;100.00;99773.09;5030684;28;20041;-70
2023/12/05 00:56:44;;;;;;;29.52;17.83;;;;;;;1.74;100.00;99770.44;5030735;28;20503;-70
2023/12/05 00:59:09;;;;;;;30.73;17.42;;;;;;;1.75;100.00;99774.72;5030630;28;20065;-70
2023/12/05 01:01:35;;;;;;;26.88;15.25;;;;;;;1.77;100.00;99771.94;5030599;28;20033;-71
2023/12/05 01:04:00;;;;;;;32.00;16.67;;;;;;;1.78;100.00;99776.19;5030698;28;20029;-70
2023/12/05 01:06:25;;;;;;;32.75;18.77;;;;;;;1.74;100.00;99766.00;5030509;28;20061;-70
2023/12/05 01:08:51;;;;;;;29.83;17.92;;;;;;;1.72;100.00;99765.34;5030499;28;20042;-70
2023/12/05 01:11:16;;;;;;;32.40;18.23;;;;;;;1.81;100.00;99767.97;5030488;28;20021;-70
2023/12/05 01:13:43;;;;;;;30.88;17.27;;;;;;;1.83;100.00;99760.75;5030431;28;20049;-70
2023/12/05 01:16:09;;;;;;;28.15;16.88;;;;;;;1.79;100.00;99762.06;5030270;28;20021;-70
2023/12/05 01:18:34;;;;;;;30.55;16.45;;;;;;;1.84;100.00;99762.41;5030292;28;20063;-70
2023/12/05 01:20:59;;;;;;;31.98;16.92;;;;;;;1.81;100.00;99755.66;5030103;28;20112;-70
2023/12/05 01:23:25;;;;;;;28.13;15.70;;;;;;;1.81;100.00;99755.66;5028980;28;20106;-70
2023/12/05 01:25:50;;;;;;;31.48;16.98;;;;;;;1.85;100.00;99754.31;5029867;28;20069;-70
2023/12/05 01:28:15;;;;;;;30.40;15.77;;;;;;;1.86;100.00;99756.00;5030177;28;20041;-70
2023/12/05 01:30:41;;;;;;;28.92;15.70;;;;;;;1.87;100.00;99751.53;5030112;28;20041;-70
2023/12/05 01:33:07;;;;;;;30.13;16.08;;;;;;;1.88;100.00;99758.44;5030003;28;20052;-70
2023/12/05 01:35:32;;;;;;;29.25;15.45;;;;;;;1.86;100.00;99753.34;5029963;28;20030;-70
2023/12/05 01:37:57;;;;;;;32.80;17.90;;;;;;;1.87;100.00;99752.34;5030010;28;20026;-70
2023/12/05 01:40:23;;;;;;;30.80;14.82;;;;;;;1.91;100.00;99756.31;5029905;28;20132;-70
2023/12/05 01:42:48;;;;;;;33.03;16.65;;;;;;;1.93;100.00;99750.88;5029858;28;20049;-70
2023/12/05 01:45:14;;;;;;;31.70;17.52;;;;;;;1.91;100.00;99751.06;5029898;28;20033;-70
2023/12/05 01:47:40;;;;;;;33.95;18.95;;;;;;;1.90;100.00;99752.03;5029777;28;20034;-70
2023/12/05 01:50:27;;;;;;;30.80;15.48;;;;;;;1.94;100.00;99758.59;5029655;28;20849;-70
2023/12/05 01:52:56;;;;;;;30.83;17.80;;;;;;;1.97;100.00;99762.69;5029490;28;20029;-70
2023/12/05 01:55:22;;;;;;;31.95;17.92;;;;;;;1.96;100.00;99763.66;5029433;28;20055;-70
2023/12/05 01:57:48;;;;;;;29.05;16.73;;;;;;;1.98;100.00;99766.97;5029530;28;20147;-70
2023/12/05 02:00:16;;;;;;;31.27;17.75;;;;;;;2.00;100.00;99765.00;5029620;28;20116;-70
2023/12/05 02:02:41;;;;;;;29.05;16.38;;;;;;;2.01;100.00;99769.25;5029324;28;20487;-70
2023/12/05 02:05:08;;;;;;;29.52;15.73;;;;;;;1.99;100.00;99763.31;5029517;28;20064;-70
2023/12/05 02:07:34;;;;;;;32.20;18.02;;;;;;;2.02;100.00;99772.69;5029458;28;20030;-70
2023/12/05 02:09:59;;;;;;;31.05;18.15;;;;;;;2.01;100.00;99769.25;5029557;28;20078;-70
2023/12/05 02:12:25;;;;;;;29.50;16.52;;;;;;;2.00;100.00;99762.34;5029553;28;20109;-70
2023/12/05 02:14:51;;;;;;;28.85;16.10;;;;;;;2.06;100.00;99774.81;5029402;28;20381;-70
2023/12/05 02:18:14;;;;;;;29.50;16.58;;;;;;;2.07;100.00;99767.75;5029415;28;20052;-70
2023/12/05 02:20:50;;;;;;;29.52;14.90;;;;;;;2.04;100.00;99765.47;4991028;28;20037;-70
2023/12/05 02:23:21;;;;;;;32.40;17.58;;;;;;;2.08;100.00;99769.41;5006499;28;20548;-70
2023/12/05 02:26:00;;;;;;;32.58;17.33;;;;;;;2.09;100.00;99763.97;5022185;28;20061;-70
2023/12/05 02:28:26;;;;;;;35.30;18.60;;;;;;;2.11;100.00;99771.69;5028987;28;20033;-70
2023/12/05 02:30:52;;;;;;;29.42;16.38;;;;;;;2.10;100.00;99760.38;5029374;28;20029;-70
2023/12/05 02:33:18;;;;;;;31.13;17.80;;;;;;;2.07;100.00;99758.06;5029092;28;20061;-70
2023/12/05 02:35:44;;;;;;;29.63;15.95;;;;;;;2.12;100.00;99768.91;5029144;28;20060;-70
2023/12/05 02:38:15;;;;;;;30.30;15.43;;;;;;;2.12;100.00;99761.03;5029163;28;20056;-70
2023/12/05 02:41:07;;;;;;;31.60;15.18;;;;;;;2.11;100.00;99753.28;5028866;28;20104;-70
2023/12/05 02:43:56;;;;;;;;;;;;;;;2.14;100.00;99759.03;5029032;28;20140;-70
2023/12/05 02:46:21;;;;;;;29.33;18.67;;;;;;;2.15;100.00;99754.59;5028909;28;19917;-70
2023/12/05 02:48:49;;;;;;;29.42;15.70;;;;;;;2.17;100.00;99757.88;5029020;28;20022;-70
2023/12/05 02:51:14;;;;;;;31.42;17.35;;;;;;;2.17;100.00;99760.50;5029095;28;20033;-70
2023/12/05 02:53:40;;;;;;;30.50;15.55;;;;;;;2.17;100.00;99753.44;5029159;28;20026;-70
2023/12/05 02:56:05;;;;;;;31.48;14.27;;;;;;;2.18;100.00;99756.88;5028601;28;20930;-70
2023/12/05 02:58:31;;;;;;;29.83;16.00;;;;;;;2.18;100.00;99756.88;5029007;28;20119;-70
2023/12/05 03:00:56;;;;;;;28.75;15.32;;;;;;;2.20;100.00;99760.16;5029007;28;20037;-70
2023/12/05 03:03:21;;;;;;;27.65;15.43;;;;;;;2.11;100.00;99740.94;5028918;28;20693;-70
2023/12/05 03:05:47;;;;;;;31.55;17.27;;;;;;;2.21;100.00;99748.66;5027562;28;20463;-70
2023/12/05 03:08:12;;;;;;;28.48;16.05;;;;;;;2.22;100.00;99750.28;5028910;28;20099;-70
2023/12/05 03:10:37;;;;;;;30.20;15.80;;;;;;;2.22;100.00;99747.66;5028880;28;20088;-70
2023/12/05 03:13:03;;;;;;;32.28;17.83;;;;;;;2.23;100.00;99741.41;5028857;28;20030;-70
2023/12/05 03:15:28;;;;;;;30.23;15.65;;;;;;;2.24;100.00;99744.88;5031650;28;20034;-70
2023/12/05 03:17:53;;;;;;;33.33;17.08;;;;;;;2.22;100.00;99738.94;5031219;28;20034;-70
2023/12/05 03:20:19;;;;;;;35.42;17.20;;;;;;;2.26;100.00;99735.00;5032607;28;20409;-70
2023/12/05 03:22:45;;;;;;;32.72;17.27;;;;;;;2.25;100.00;99735.97;5032576;28;20030;-70
2023/12/05 03:25:11;;;;;;;31.88;15.90;;;;;;;2.26;100.00;99735.81;5030822;28;20399;-70
2023/12/05 03:27:36;;;;;;;31.08;16.17;;;;;;;2.27;100.00;99734.00;5032826;28;20033;-70
2023/12/05 03:30:03;;;;;;;33.70;17.75;;;;;;;2.23;100.00;99730.06;5032210;28;20029;-70
2023/12/05 03:32:28;;;;;;;28.25;16.55;;;;;;;2.22;100.00;99725.78;5032064;28;20037;-70
2023/12/05 03:34:53;;;;;;;30.13;15.55;;;;;;;2.29;100.00;99729.41;5032140;28;20059;-70
2023/12/05 03:37:19;;;;;;;29.50;15.48;;;;;;;2.30;100.00;99733.66;5030865;28;20029;-70
2023/12/05 03:39:44;;;;;;;28.90;15.05;;;;;;;2.30;100.00;99744.19;5032213;28;20033;-70
2023/12/05 03:42:09;;;;;;;29.33;15.60;;;;;;;2.30;100.00;99733.66;5031914;28;20065;-70
2023/12/05 03:44:35;;;;;;;27.90;14.82;;;;;;;2.30;100.00;99737.09;5032106;28;20366;-70
2023/12/05 03:47:00;;;;;;;27.23;14.60;;;;;;;2.32;100.00;99735.13;5031878;28;20041;-70
2023/12/05 03:49:25;;;;;;;29.08;16.25;;;;;;;2.33;100.00;99741.19;5032048;28;20061;-70
2023/12/05 03:51:51;;;;;;;31.58;15.10;;;;;;;2.31;100.00;99735.31;5031969;28;20033;-70
2023/12/05 03:54:16;;;;;;;32.78;15.68;;;;;;;2.33;100.00;99746.47;5030436;28;20033;-70
2023/12/05 03:56:42;;;;;;;30.00;15.57;;;;;;;2.30;100.00;99741.53;5030500;28;20476;-70
2023/12/05 03:59:07;;;;;;;30.80;16.17;;;;;;;2.33;100.00;99749.09;5030312;28;20041;-70
2023/12/05 04:01:32;;;;;;;29.80;17.00;;;;;;;2.33;100.00;99743.84;5031867;28;20095;-70
2023/12/05 04:03:58;;;;;;;30.92;16.75;;;;;;;2.33;100.00;99757.84;5031840;28;20469;-71
2023/12/05 04:06:24;;;;;;;30.65;15.73;;;;;;;2.32;100.00;99747.47;5031667;28;20057;-70
2023/12/05 04:08:50;;;;;;;31.00;16.73;;;;;;;2.34;100.00;99756.81;5031723;28;20075;-70
2023/12/05 04:11:16;;;;;;;29.83;14.20;;;;;;;2.30;100.00;99758.16;5031543;28;20026;-70
2023/12/05 04:13:41;;;;;;;32.67;16.13;;;;;;;2.33;100.00;99765.72;5031441;28;20534;-70
2023/12/05 04:16:07;;;;;;;31.60;17.38;;;;;;;2.34;100.00;99756.81;5031358;28;20087;-70
2023/12/05 04:18:33;;;;;;;30.38;16.58;;;;;;;2.34;100.00;99756.81;5031487;28;20036;-70
2023/12/05 04:20:58;;;;;;;32.50;19.20;;;;;;;2.38;100.00;99773.09;5031454;28;20032;-70
2023/12/05 04:23:23;;;;;;;32.70;16.13;;;;;;;2.38;100.00;99765.19;5031518;28;20029;-70
2023/12/05 04:25:49;;;;;;;30.38;15.50;;;;;;;2.39;100.00;99775.56;5031105;28;20473;-70
2023/12/05 04:28:14;;;;;;;33.60;16.75;;;;;;;2.41;100.00;99778.00;5031332;28;20562;-70
2023/12/05 04:30:39;;;;;;;30.70;18.35;;;;;;;2.41;100.00;99776.22;5030134;28;20043;-70
2023/12/05 04:33:05;;;;;;;34.08;17.77;;;;;;;2.42;100.00;99777.03;5031181;28;20116;-70
2023/12/05 04:35:30;;;;;;;35.58;16.50;;;;;;;2.43;100.00;99781.28;5031104;28;20045;-70
2023/12/05 04:37:56;;;;;;;33.95;16.83;;;;;;;2.43;100.00;99783.91;5031103;28;20928;-71
2023/12/05 04:40:21;;;;;;;30.88;14.50;;;;;;;2.42;100.00;99780.47;5031089;28;20068;-70
2023/12/05 04:42:46;;;;;;;30.63;15.73;;;;;;;2.46;100.00;99782.75;5030834;28;20139;-70
2023/12/05 04:45:12;;;;;;;33.05;15.75;;;;;;;2.47;100.00;99779.97;5030883;28;20033;-70
2023/12/05 04:47:37;;;;;;;31.38;15.05;;;;;;;2.48;100.00;99783.41;5030718;28;20053;-70
2023/12/05 04:50:03;;;;;;;32.97;16.15;;;;;;;2.49;100.00;99777.16;5030672;28;20025;-70
2023/12/05 04:52:28;;;;;;;35.13;17.58;;;;;;;2.49;100.00;99777.16;5030855;28;20030;-70
2023/12/05 04:54:53;;;;;;;29.90;14.70;;;;;;;2.46;100.00;99782.75;5030649;28;20064;-70
2023/12/05 04:57:19;;;;;;;30.60;16.55;;;;;;;2.49;100.00;99785.88;5030899;28;20033;-70
2023/12/05 04:59:44;;;;;;;32.45;15.35;;;;;;;2.50;100.00;99784.88;5030627;28;20499;-70
2023/12/05 05:02:13;;;;;;;31.27;16.73;;;;;;;2.50;100.00;99787.53;5030625;28;20037;-70
2023/12/05 05:04:38;;;;;;;30.85;16.95;;;;;;;2.52;100.00;99793.44;5030538;28;20144;-70
2023/12/05 05:07:04;;;;;;;34.90;17.67;;;;;;;2.54;100.00;99802.00;5030476;28;20128;-70
2023/12/05 05:09:30;;;;;;;32.53;17.08;;;;;;;2.52;100.00;99793.44;5030564;28;20037;-70
2023/12/05 05:11:56;;;;;;;29.45;14.95;;;;;;;2.52;100.00;99795.25;5030377;28;20033;-70
2023/12/05 05:14:21;;;;;;;28.60;16.08;;;;;;;2.55;100.00;99794.91;5030433;28;20030;-69
2023/12/05 05:16:46;;;;;;;33.40;16.83;;;;;;;2.56;100.00;99797.34;5030332;28;20034;-70
2023/12/05 05:19:12;;;;;;;29.52;15.55;;;;;;;2.57;100.00;99806.09;5030379;28;20043;-70
2023/12/05 05:21:37;;;;;;;31.88;15.80;;;;;;;2.57;100.00;99799.00;5030158;28;20060;-70
2023/12/05 05:24:02;;;;;;;32.70;16.33;;;;;;;2.58;100.00;99803.28;5030320;28;20041;-69
2023/12/05 05:26:28;;;;;;;35.42;17.70;;;;;;;2.50;100.00;99784.88;5030148;28;20030;-70
2023/12/05 05:28:53;;;;;;;29.65;14.27;;;;;;;2.59;100.00;99804.09;5028836;28;20041;-69
2023/12/05 05:31:19;;;;;;;35.78;16.83;;;;;;;2.60;100.00;99803.94;5029988;28;20033;-69
2023/12/05 05:33:44;;;;;;;28.95;14.80;;;;;;;2.61;100.00;99807.38;5029679;28;20033;-69
2023/12/05 05:36:12;;;;;;;33.35;17.98;;;;;;;2.62;100.00;99809.84;5029851;28;20469;-69
2023/12/05 05:38:37;;;;;;;35.60;17.45;;;;;;;2.63;100.00;99805.41;5029456;28;20057;-70
2023/12/05 05:41:07;;;;;;;28.95;15.25;;;;;;;2.63;100.00;99810.66;5029645;28;20575;-69
2023/12/05 05:43:33;;;;;;;33.03;17.13;;;;;;;2.63;100.00;99815.94;5029698;28;20065;-70
2023/12/05 05:46:00;;;;;;;33.80;16.02;;;;;;;2.64;100.00;99807.84;5028361;28;20021;-70
2023/12/05 05:48:25;;;;;;;34.03;17.73;;;;;;;2.60;100.00;99808.38;5029650;28;20030;-70
2023/12/05 05:50:51;;;;;;;31.63;14.88;;;;;;;2.63;100.00;99811.47;5029601;28;20090;-69
2023/12/05 05:53:16;;;;;;;36.40;17.15;;;;;;;2.64;100.00;99818.38;5029130;28;20112;-69
2023/12/05 05:55:42;;;;;;;33.45;16.83;;;;;;;2.65;100.00;99821.84;5029787;28;20037;-69
2023/12/05 05:58:10;;;;;;;29.90;16.33;;;;;;;2.64;100.00;99818.38;5029538;28;20033;-69
2023/12/05 06:00:36;;;;;;;31.42;16.08;;;;;;;2.66;100.00;99826.13;5029449;28;20025;-69
2023/12/05 06:03:02;;;;;;;33.25;13.90;;;;;;;2.60;100.00;99813.66;5029526;28;20033;-70
2023/12/05 06:05:27;;;;;;;29.77;16.00;;;;;;;2.64;100.00;99820.19;5029257;28;20029;-70
2023/12/05 06:07:53;;;;;;;28.58;13.85;;;;;;;2.63;100.00;99824.66;5029434;28;20041;-70
2023/12/05 06:10:19;;;;;;;30.98;14.77;;;;;;;2.62;100.00;99822.19;5029362;28;20398;-70
2023/12/05 06:12:44;;;;;;;29.42;15.23;;;;;;;2.59;100.00;99828.63;5029401;28;20029;-70
2023/12/05 06:15:09;;;;;;;30.10;14.65;;;;;;;2.58;100.00;99831.41;5029292;28;20029;-70
2023/12/05 06:17:35;;;;;;;32.25;17.83;;;;;;;2.57;100.00;99837.69;5029267;28;20037;-70
2023/12/05 06:20:00;;;;;;;29.40;12.77;;;;;;;2.49;100.00;99830.63;5029408;28;20065;-70
2023/12/05 06:22:25;;;;;;;30.20;14.23;;;;;;;2.45;100.00;99825.88;5029350;28;20060;-70
2023/12/05 06:24:51;;;;;;;30.25;15.02;;;;;;;2.50;100.00;99834.06;5029277;28;20088;-70
2023/12/05 06:27:16;;;;;;;29.65;16.08;;;;;;;2.48;100.00;99842.13;5029235;28;20040;-70
2023/12/05 06:29:41;;;;;;;29.42;15.15;;;;;;;2.46;100.00;99841.47;5029318;28;20030;-70
2023/12/05 06:32:07;;;;;;;30.98;15.32;;;;;;;2.45;100.00;99845.09;5027843;28;20029;-70
2023/12/05 06:34:32;;;;;;;29.05;12.90;;;;;;;2.36;100.00;99831.16;5029125;28;20021;-70
2023/12/05 06:36:58;;;;;;;29.45;14.68;;;;;;;2.42;100.00;99840.19;5029318;28;20124;-70
2023/12/05 06:39:23;;;;;;;26.70;12.35;;;;;;;2.42;100.00;99845.44;5029131;28;20389;-70
2023/12/05 06:41:49;;;;;;;28.67;13.60;;;;;;;2.41;100.00;99852.53;5027872;28;20136;-69
2023/12/05 06:44:14;;;;;;;27.70;14.05;;;;;;;2.40;100.00;99850.88;5029232;28;20059;-70
2023/12/05 06:46:40;;;;;;;33.90;17.08;;;;;;;2.37;100.00;99853.84;5028970;28;20057;-70
2023/12/05 06:49:05;;;;;;;29.65;15.07;;;;;;;2.37;100.00;99860.91;5029673;28;20556;-70
2023/12/05 06:51:30;;;;;;;32.78;16.52;;;;;;;2.34;100.00;99869.16;5033128;28;20116;-70
2023/12/05 06:53:56;;;;;;;27.98;15.80;;;;;;;2.31;100.00;99862.41;5032837;28;20037;-70
2023/12/05 06:56:21;;;;;;;31.70;16.85;;;;;;;2.31;100.00;99859.78;5033039;28;20021;-70
2023/12/05 06:58:47;;;;;;;30.52;15.25;;;;;;;2.30;100.00;99870.47;5032960;28;20520;-70
2023/12/05 07:01:12;;;;;;;34.38;16.38;;;;;;;2.27;100.00;99868.97;5032924;28;20038;-70
2023/12/05 07:03:37;;;;;;;31.77;15.60;;;;;;;2.27;100.00;99874.25;5032680;28;20040;-70
2023/12/05 07:06:04;;;;;;;28.98;13.88;;;;;;;2.26;100.00;99874.44;5032608;28;20029;-70
2023/12/05 07:08:30;;;;;;;31.30;15.98;;;;;;;2.22;100.00;99873.91;5032859;28;20044;-70
2023/12/05 07:10:55;;;;;;;30.98;16.05;;;;;;;2.21;100.00;99880.19;5032933;28;20112;-70
2023/12/05 07:13:20;;;;;;;31.48;15.70;;;;;;;2.20;100.00;99886.41;5032566;28;20447;-70
2023/12/05 07:15:46;;;;;;;32.03;16.17;;;;;;;2.19;100.00;99885.59;5032624;28;20061;-70
2023/12/05 07:18:11;;;;;;;37.75;16.80;;;;;;;2.17;100.00;99884.97;5032713;28;20041;-70
2023/12/05 07:20:36;;;;;;;33.53;17.67;;;;;;;2.17;100.00;99898.13;5032151;28;20037;-70
2023/12/05 07:23:02;;;;;;;32.42;16.48;;;;;;;2.15;100.00;99899.25;5032043;28;20037;-70
2023/12/05 07:25:27;;;;;;;32.15;15.68;;;;;;;2.13;100.00;99898.59;5032548;28;20037;-70
2023/12/05 07:27:53;;;;;;;31.27;16.10;;;;;;;2.07;100.00;99891.34;5032318;28;20029;-69
2023/12/05 07:30:18;;;;;;;32.42;16.23;;;;;;;2.12;100.00;99908.31;5032213;28;20124;-70
2023/12/05 07:32:43;;;;;;;32.55;15.13;;;;;;;2.11;100.00;99914.53;5032221;28;20033;-70
2023/12/05 07:35:09;;;;;;;31.05;15.93;;;;;;;2.08;100.00;99912.25;5032337;28;20029;-70
2023/12/05 07:37:34;;;;;;;35.55;16.95;;;;;;;2.07;100.00;99913.25;5032178;28;20428;-70
2023/12/05 07:40:00;;;;;;;30.73;15.90;;;;;;;2.08;100.00;99925.38;5032238;28;20036;-70
2023/12/05 07:42:25;;;;;;;29.23;15.93;;;;;;;2.05;100.00;99919.66;5031762;28;20060;-72
2023/12/05 07:44:51;;;;;;;34.65;15.73;;;;;;;2.04;100.00;99933.75;5030692;28;20068;-72
2023/12/05 07:47:16;;;;;;;34.53;17.67;;;;;;;2.01;100.00;99926.22;5031615;28;20118;-72
2023/12/05 07:49:45;;;;;;;27.92;14.35;;;;;;;1.97;100.00;99931.81;5031940;28;20124;-72
2023/12/05 07:52:10;;;;;;;30.85;16.30;;;;;;;1.95;100.00;99935.56;5031016;28;20025;-72
2023/12/05 07:54:36;;;;;;;34.88;18.25;;;;;;;1.95;100.00;99938.22;5031156;28;20106;-72
2023/12/05 07:57:01;;;;;;;35.08;16.05;;;;;;;1.95;100.00;99944.28;5030895;28;20041;-72
2023/12/05 07:59:26;;;;;;;30.70;15.63;;;;;;;1.95;100.00;99946.91;5029087;28;20045;-73
2023/12/05 08:01:52;;;;;;;31.00;15.45;;;;;;;1.93;100.00;99958.56;5030448;28;20076;-72
2023/12/05 08:04:17;;;;;;;31.40;15.88;;;;;;;1.91;100.00;99948.25;5030981;28;20044;-72
2023/12/05 08:06:43;;;;;;;31.98;15.82;;;;;;;1.89;100.00;99955.47;5029831;28;20025;-72
2023/12/05 08:09:08;;;;;;;32.15;16.38;;;;;;;1.90;100.00;99958.91;5030992;28;20550;-72
2023/12/05 08:11:35;;;;;;;29.45;14.93;;;;;;;1.86;100.00;99962.84;5030640;28;20029;-72
2023/12/05 08:14:07;;;;;;;31.70;16.90;;;;;;;1.85;100.00;99966.47;5031047;28;20163;-70
2023/12/05 08:16:32;;;;;;;33.72;16.13;;;;;;;1.87;100.00;99973.19;5019262;28;20021;-70
2023/12/05 08:18:58;;;;;;;30.40;14.07;;;;;;;1.68;100.00;99944.59;5031151;28;20075;-70
2023/12/05 08:21:23;;;;;;;29.98;14.65;;;;;;;1.87;100.00;99973.19;5030637;28;20215;-70
2023/12/05 08:23:48;;;;;;;33.65;16.70;;;;;;;1.85;100.00;99975.16;5030206;28;20214;-70
2023/12/05 08:26:14;;;;;;;33.15;17.20;;;;;;;1.72;100.00;99967.75;5030573;28;20557;-70
2023/12/05 08:28:39;;;;;;;33.25;15.95;;;;;;;1.89;100.00;99991.47;5029877;28;20421;-69
2023/12/05 08:31:06;;;;;;;34.30;15.50;;;;;;;1.85;100.00;99998.00;5030765;28;20034;-69
2023/12/05 08:33:32;;;;;;;33.83;16.23;;;;;;;1.78;100.00;99994.38;5030800;28;20057;-69
2023/12/05 08:35:57;;;;;;;32.90;15.98;;;;;;;1.88;100.00;100006.38;5030904;28;20049;-70
2023/12/05 08:38:22;;;;;;;31.35;16.35;;;;;;;1.88;100.00;100006.38;5031065;28;20068;-70
2023/12/05 08:40:48;;;;;;;31.85;16.80;;;;;;;1.72;100.00;99991.41;5030622;28;20033;-70
2023/12/05 08:43:13;;;;;;;34.15;16.60;;;;;;;1.77;100.00;99998.00;5029341;28;20056;-70
2023/12/05 08:45:38;;;;;;;30.50;14.73;;;;;;;1.87;100.00;100015.25;5029346;28;20489;-70
2023/12/05 08:48:04;;;;;;;30.02;16.00;;;;;;;1.88;100.00;100014.28;5030762;28;20036;-70
2023/12/05 08:50:29;;;;;;;33.58;15.90;;;;;;;1.88;100.00;100010.81;5030703;28;20033;-70
2023/12/05 08:52:55;;;;;;;31.77;15.90;;;;;;;1.73;100.00;99993.06;5029871;28;20030;-70
2023/12/05 08:55:20;;;;;;;29.88;16.92;;;;;;;1.74;100.00;99997.31;5030238;28;20059;-70
2023/12/05 08:57:45;;;;;;;27.80;12.70;;;;;;;1.84;100.00;100020.84;5030594;28;20030;-70
2023/12/05 09:00:11;;;;;;;29.38;17.50;;;;;;;1.87;100.00;100022.34;5030343;28;20033;-70
2023/12/05 09:02:37;;;;;;;30.35;16.83;;;;;;;1.87;100.00;100019.72;5030237;28;20404;-70
2023/12/05 09:05:03;;;;;;;34.47;15.88;;;;;;;1.77;100.00;100005.88;5030361;28;20040;-70
2023/12/05 09:07:28;;;;;;;29.30;15.25;;;;;;;1.89;100.00;100031.72;5030169;28;20025;-70
2023/12/05 09:09:54;;;;;;;32.15;17.33;;;;;;;1.90;100.00;100030.72;5029114;28;20040;-70
2023/12/05 09:12:19;;;;;;;30.55;16.17;;;;;;;1.88;100.00;100034.47;5029343;28;20025;-70
2023/12/05 09:14:45;;;;;;;31.05;14.73;;;;;;;1.89;100.00;100036.16;5029788;28;20034;-69
2023/12/05 09:17:11;;;;;;;30.02;15.75;;;;;;;1.68;100.00;100011.13;5028489;28;20025;-69
2023/12/05 09:19:36;;;;;;;29.88;15.23;;;;;;;1.67;100.00;100003.38;5028989;28;20575;-69
2023/12/05 09:22:02;;;;;;;34.05;16.23;;;;;;;1.68;100.00;100021.63;5030015;28;20112;-69
2023/12/05 09:24:28;;;;;;;34.40;16.15;;;;;;;1.76;100.00;100036.59;5029681;28;20041;-69
2023/12/05 09:26:53;;;;;;;36.50;17.70;;;;;;;1.92;100.00;100055.03;5029828;28;20029;-69
2023/12/05 09:29:19;;;;;;;33.55;16.20;;;;;;;1.75;100.00;100019.16;5028318;28;20108;-69
2023/12/05 09:31:44;;;;;;;33.97;16.65;;;;;;;2.03;100.00;100061.81;5030014;28;20041;-69
2023/12/05 09:34:09;;;;;;;31.25;14.70;;;;;;;2.03;100.00;100053.09;5029609;28;20029;-69
2023/12/05 09:36:35;;;;;;;35.28;15.20;;;;;;;1.81;100.00;100028.22;5029886;28;20053;-69
2023/12/05 09:39:00;;;;;;;36.50;17.27;;;;;;;2.02;100.00;100065.44;5028208;28;20060;-69
2023/12/05 09:41:27;;;;;;;41.67;18.52;;;;;;;1.91;100.00;100058.66;5029692;28;20583;-69
2023/12/05 09:43:54;;;;;;;33.13;15.73;;;;;;;1.93;100.00;100051.41;5029454;28;20523;-69
2023/12/05 09:46:25;;;;;;;32.00;17.63;;;;;;;1.80;100.00;100032.66;5029482;28;20559;-69
2023/12/05 09:48:54;;;;;;;33.20;16.70;;;;;;;1.98;100.00;100053.56;5029804;28;20037;-69
2023/12/05 09:51:19;;;;;;;35.67;18.33;;;;;;;2.13;100.00;100073.00;5029338;28;20072;-70
2023/12/05 09:53:47;;;;;;;30.17;14.93;;;;;;;2.00;100.00;100056.06;5028525;28;20045;-69
2023/12/05 09:56:13;;;;;;;34.55;16.95;;;;;;;2.01;100.00;100063.78;5029467;28;20461;-69
2023/12/05 09:58:43;;;;;;;36.55;18.45;;;;;;;1.94;100.00;100058.34;5029342;28;20037;-69
2023/12/05 10:01:13;;;;;;;36.03;16.52;;;;;;;2.10;100.00;100083.88;5029483;28;20033;-69
2023/12/05 10:03:40;;;;;;;30.52;15.57;;;;;;;1.98;100.00;100067.53;5029800;28;20424;-69
2023/12/05 10:06:06;;;;;;;33.75;17.17;;;;;;;2.03;100.00;100064.44;5028294;28;20021;-69
2023/12/05 10:08:33;;;;;;;33.05;18.08;;;;;;;2.13;100.00;100077.47;5029801;28;20417;-69
2023/12/05 10:11:00;;;;;;;32.50;18.02;;;;;;;2.06;100.00;100074.63;5029920;28;20053;-69
2023/12/05 10:13:26;;;;;;;36.22;17.67;;;;;;;2.23;100.00;100093.06;5029880;28;20038;-69
2023/12/05 10:15:52;;;;;;;34.75;14.63;;;;;;;2.19;100.00;100105.75;5029416;28;20028;-69
2023/12/05 10:18:18;;;;;;;35.05;17.08;;;;;;;2.04;100.00;100084.47;5027020;28;20041;-66
2023/12/05 10:20:44;;;;;;;35.03;17.95;;;;;;;2.18;100.00;100101.47;5024904;28;20026;-68
2023/12/05 10:23:10;;;;;;;35.33;17.08;;;;;;;2.18;100.00;100112.00;5026609;28;20049;-68
2023/12/05 10:25:35;;;;;;;37.72;18.05;;;;;;;1.99;100.00;100084.13;5026560;28;20029;-67
2023/12/05 10:28:06;;;;;;;33.22;16.75;;;;;;;2.06;100.00;100090.41;5026910;28;20037;-70
2023/12/05 10:30:33;;;;;;;45.13;20.25;;;;;;;2.07;100.00;100088.59;5026577;28;20693;-70
2023/12/05 10:33:11;;;;;;;37.45;18.38;;;;;;;2.24;100.00;100118.41;5025299;28;20026;-68
2023/12/05 10:35:37;;;;;;;35.97;18.65;;;;;;;2.06;100.00;100077.25;5027319;28;20476;-67
2023/12/05 10:38:07;;;;;;;31.25;15.52;;;;;;;2.32;100.00;100118.44;5029224;28;20087;-70
2023/12/05 10:40:52;;;;;;;38.58;19.13;;;;;;;2.34;100.00;100121.72;5028979;28;20136;-71
2023/12/05 10:43:19;;;;;;;39.65;19.48;;;;;;;2.36;100.00;100117.16;5028982;28;20144;-71
2023/12/05 10:45:44;;;;;;;34.22;17.67;;;;;;;2.34;100.00;100127.81;5028803;28;20026;-71
2023/12/05 10:48:11;;;;;;;38.47;19.90;;;;;;;2.33;100.00;100135.84;5028678;28;20140;-71
2023/12/05 10:50:38;;;;;;;34.95;19.65;;;;;;;2.36;100.00;100133.75;5026742;28;20068;-71
2023/12/05 10:53:04;;;;;;;43.95;19.75;;;;;;;2.37;100.00;100132.75;5028336;28;20104;-71
2023/12/05 10:55:30;;;;;;;38.90;20.27;;;;;;;2.34;100.00;100127.00;5027183;28;20038;-70
2023/12/05 10:57:56;;;;;;;40.55;19.02;;;;;;;2.36;100.00;100132.94;5028533;28;20033;-71
2023/12/05 11:00:22;;;;;;;40.78;18.15;;;;;;;2.36;100.00;100144.28;5027285;28;20045;-71
2023/12/05 11:02:48;;;;;;;37.17;17.83;;;;;;;2.37;100.00;100145.09;5028788;28;20030;-71
2023/12/05 11:05:14;;;;;;;38.28;18.33;;;;;;;2.34;100.00;100133.06;5028590;28;20376;-71
2023/12/05 11:07:40;;;;;;;39.65;18.63;;;;;;;2.37;100.00;100142.47;5027357;28;20124;-71
2023/12/05 11:10:07;;;;;;;41.40;18.13;;;;;;;2.29;100.00;100148.53;5028574;28;20033;-71
2023/12/05 11:12:35;;;;;;;33.10;16.00;;;;;;;2.27;100.00;100152.28;5027044;28;20737;-71